createdAt,value
2019-01-06T00:01:53.574Z,29.63
2019-01-06T00:05:01.269Z,28.47
2019-01-06T00:07:47.400Z,25.53
2019-01-06T00:10:36.954Z,27.33
2019-01-06T00:13:25.039Z,27.17
2019-01-06T00:16:13.545Z,25.73
2019-01-06T00:19:01.575Z,27.53
2019-01-06T00:21:49.544Z,27.33
2019-01-06T00:24:34.944Z,29.93
2019-01-06T00:27:23.224Z,30.13
2019-01-06T00:30:24.894Z,29.83
2019-01-06T00:33:12.690Z,29.97
2019-01-06T00:36:02.429Z,31.43
2019-01-06T00:38:55.101Z,33.50
2019-01-06T00:42:00.171Z,27.27
2019-01-06T00:44:48.094Z,30.60
2019-01-06T00:47:36.658Z,28.10
2019-01-06T00:50:25.421Z,28.87
2019-01-06T00:53:13.249Z,30.83
2019-01-06T00:56:14.563Z,30.50
2019-01-06T00:59:14.240Z,32.30
2019-01-06T01:02:00.784Z,34.23
2019-01-06T01:04:50.329Z,38.20
2019-01-06T01:07:45.613Z,36.03
2019-01-06T01:10:35.094Z,35.90
2019-01-06T01:13:30.974Z,35.77
2019-01-06T01:16:26.269Z,36.40
2019-01-06T01:19:18.869Z,35.60
2019-01-06T01:22:17.503Z,36.17
2019-01-06T01:25:05.819Z,35.07
2019-01-06T01:28:10.399Z,37.17
2019-01-06T01:31:18.378Z,37.30
2019-01-06T01:34:06.084Z,36.10
2019-01-06T01:36:54.352Z,37.10
2019-01-06T01:39:43.774Z,36.00
2019-01-06T01:42:36.245Z,36.00
2019-01-06T01:45:29.192Z,33.53
2019-01-06T01:48:21.398Z,31.93
2019-01-06T01:51:14.504Z,32.23
2019-01-06T01:54:05.137Z,29.03
2019-01-06T01:56:57.909Z,29.27
2019-01-06T01:59:46.094Z,29.00
2019-01-06T02:02:43.854Z,27.03
2019-01-06T02:05:38.859Z,28.40
2019-01-06T02:08:27.484Z,30.07
2019-01-06T02:11:23.315Z,28.77
2019-01-06T02:14:13.124Z,29.53
2019-01-06T02:17:01.174Z,30.70
2019-01-06T02:19:48.861Z,33.37
2019-01-06T02:22:47.054Z,35.13
2019-01-06T02:25:39.525Z,35.40
2019-01-06T02:28:43.844Z,33.17
2019-01-06T02:31:31.425Z,34.77
2019-01-06T02:34:20.639Z,38.53
2019-01-06T02:37:09.929Z,35.17
2019-01-06T02:40:05.329Z,34.57
2019-01-06T02:43:00.333Z,35.17
2019-01-06T02:45:48.199Z,34.03
2019-01-06T02:48:52.799Z,34.73
2019-01-06T02:51:42.060Z,33.50
2019-01-06T02:54:34.529Z,33.90
2019-01-06T02:57:23.799Z,30.67
2019-01-06T03:00:09.321Z,33.10
2019-01-06T03:03:00.164Z,34.30
2019-01-06T03:05:58.964Z,32.40
2019-01-06T03:08:49.370Z,31.73
2019-01-06T03:11:54.488Z,36.13
2019-01-06T03:14:37.524Z,34.97
2019-01-06T03:17:19.865Z,31.17
2019-01-06T03:20:17.954Z,28.83
2019-01-06T03:23:03.464Z,31.13
2019-01-06T03:26:04.814Z,35.00
2019-01-06T03:29:00.149Z,33.17
2019-01-06T03:32:04.422Z,35.73
2019-01-06T03:35:06.110Z,34.40
2019-01-06T03:37:54.249Z,32.43
2019-01-06T03:40:46.629Z,35.33
2019-01-06T03:43:47.950Z,38.27
2019-01-06T03:46:46.359Z,34.63
2019-01-06T03:49:47.985Z,34.90
2019-01-06T03:52:37.830Z,36.83
2019-01-06T03:55:25.748Z,34.80
2019-01-06T03:58:15.449Z,36.87
2019-01-06T04:01:08.019Z,35.37
2019-01-06T04:03:55.913Z,31.03
2019-01-06T04:06:45.479Z,29.90
2019-01-06T04:09:47.479Z,31.37
2019-01-06T04:12:39.713Z,33.27
2019-01-06T04:15:32.331Z,36.50
2019-01-06T04:18:25.337Z,31.33
2019-01-06T04:21:13.170Z,29.17
2019-01-06T04:24:08.349Z,29.47
2019-01-06T04:27:15.760Z,29.90
2019-01-06T04:30:03.545Z,30.27
2019-01-06T04:33:02.034Z,29.77
2019-01-06T04:35:51.304Z,30.87
2019-01-06T04:38:55.834Z,29.60
2019-01-06T04:41:47.764Z,33.43
2019-01-06T04:44:49.799Z,34.57
2019-01-06T04:47:49.269Z,35.47
2019-01-06T04:50:37.013Z,38.87
2019-01-06T04:53:30.895Z,39.83
2019-01-06T04:56:26.908Z,38.90
2019-01-06T04:59:19.071Z,39.53
2019-01-06T05:02:09.736Z,39.73
2019-01-06T05:05:14.573Z,39.80
2019-01-06T05:08:09.759Z,39.10
2019-01-06T05:11:01.899Z,37.67
2019-01-06T05:13:49.642Z,40.90
2019-01-06T05:16:43.629Z,39.10
2019-01-06T05:19:36.019Z,40.73
2019-01-06T05:22:28.481Z,37.90
2019-01-06T05:25:24.140Z,38.23
2019-01-06T05:28:17.379Z,40.53
2019-01-06T05:31:06.749Z,38.67
2019-01-06T05:33:56.234Z,40.33
2019-01-06T05:36:40.444Z,35.03
2019-01-06T05:39:47.908Z,40.27
2019-01-06T05:42:29.159Z,36.27
2019-01-06T05:45:18.687Z,37.17
2019-01-06T05:48:13.069Z,37.90
2019-01-06T05:51:02.854Z,38.97
2019-01-06T05:53:50.754Z,37.03
2019-01-06T05:56:38.969Z,38.87
2019-01-06T05:59:27.459Z,39.87
2019-01-06T06:02:22.634Z,38.93
2019-01-06T06:05:08.979Z,39.90
2019-01-06T06:07:56.629Z,38.90
2019-01-06T06:10:47.039Z,37.53
2019-01-06T06:13:39.384Z,39.30
2019-01-06T06:16:35.386Z,38.23
2019-01-06T06:19:23.229Z,38.90
2019-01-06T06:22:21.493Z,40.07
2019-01-06T06:25:09.315Z,40.03
2019-01-06T06:27:57.489Z,39.83
2019-01-06T06:30:44.908Z,37.83
2019-01-06T06:33:34.814Z,38.57
2019-01-06T06:36:24.400Z,38.23
2019-01-06T06:39:12.014Z,39.43
2019-01-06T06:42:01.779Z,37.03
2019-01-06T06:44:49.928Z,37.37
2019-01-06T06:47:48.299Z,36.50
2019-01-06T06:50:36.389Z,38.40
2019-01-06T06:53:28.578Z,36.47
2019-01-06T06:56:20.774Z,35.00
2019-01-06T06:59:14.799Z,35.17
2019-01-06T07:03:01.820Z,36.87
2019-01-06T07:06:03.233Z,36.67
2019-01-06T07:08:45.829Z,39.00
2019-01-06T07:11:41.797Z,38.43
2019-01-06T07:14:31.494Z,37.43
2019-01-06T07:17:55.594Z,41.87
2019-01-06T07:20:44.339Z,47.50
2019-01-06T07:23:51.855Z,60.87
2019-01-06T07:26:44.089Z,59.83
2019-01-06T07:29:39.238Z,63.53
2019-01-06T07:32:55.174Z,66.70
2019-01-06T07:35:43.099Z,35.57
2019-01-06T07:38:44.499Z,16.60
2019-01-06T07:41:33.974Z,33.00
2019-01-06T07:44:32.724Z,32.63
2019-01-06T07:47:20.614Z,40.30
2019-01-06T07:50:19.454Z,37.33
2019-01-06T07:53:07.679Z,38.93
2019-01-06T07:55:59.829Z,38.10
2019-01-06T07:59:04.590Z,34.83
2019-01-06T08:02:02.726Z,37.10
2019-01-06T08:04:55.080Z,33.70
2019-01-06T08:08:02.340Z,32.27
2019-01-06T08:10:49.832Z,37.00
2019-01-06T08:13:46.135Z,41.57
2019-01-06T08:16:41.345Z,38.53
2019-01-06T08:19:19.729Z,48.40
2019-01-06T08:22:12.714Z,40.83
2019-01-06T08:24:55.939Z,39.00
2019-01-06T08:27:43.465Z,38.60
2019-01-06T08:30:35.864Z,37.47
2019-01-06T08:33:24.264Z,40.43
2019-01-06T08:36:20.134Z,38.97
2019-01-06T08:39:06.504Z,36.57
2019-01-06T08:42:03.695Z,45.73
2019-01-06T08:45:02.474Z,41.67
2019-01-06T08:47:50.779Z,40.70
2019-01-06T08:50:40.089Z,38.30
2019-01-06T08:53:21.949Z,37.80
2019-01-06T08:56:10.304Z,38.80
2019-01-06T08:58:59.659Z,39.27
2019-01-06T09:02:01.100Z,39.80
2019-01-06T09:04:59.612Z,37.37
2019-01-06T09:07:57.939Z,39.53
2019-01-06T09:10:53.659Z,32.83
2019-01-06T09:13:55.205Z,31.10
2019-01-06T09:16:53.464Z,35.93
2019-01-06T09:19:57.910Z,34.27
2019-01-06T09:22:53.594Z,35.30
2019-01-06T09:25:58.215Z,36.90
2019-01-06T09:28:47.716Z,37.03
2019-01-06T09:31:39.850Z,36.20
2019-01-06T09:34:29.074Z,37.30
2019-01-06T09:37:21.202Z,37.20
2019-01-06T09:40:16.639Z,35.03
2019-01-06T09:43:02.929Z,34.47
2019-01-06T09:45:54.999Z,34.63
2019-01-06T09:48:43.264Z,32.50
2019-01-06T09:51:32.624Z,32.07
2019-01-06T09:54:19.984Z,31.83
2019-01-06T09:57:18.734Z,30.40
2019-01-06T10:00:07.064Z,31.57
2019-01-06T10:03:02.279Z,27.23
2019-01-06T10:05:50.565Z,29.07
2019-01-06T10:08:43.029Z,29.63
2019-01-06T10:11:35.339Z,27.43
2019-01-06T10:14:33.880Z,27.37
2019-01-06T10:17:41.299Z,28.43
2019-01-06T10:20:33.872Z,28.67
2019-01-06T10:23:38.694Z,28.47
2019-01-06T10:26:28.259Z,29.97
2019-01-06T10:29:17.739Z,27.60
2019-01-06T10:32:07.329Z,28.47
2019-01-06T10:35:14.954Z,28.27
2019-01-06T10:38:04.824Z,29.23
2019-01-06T10:40:54.185Z,28.93
2019-01-06T10:43:46.615Z,27.27
2019-01-06T10:46:34.289Z,29.83
2019-01-06T10:49:29.300Z,29.17
2019-01-06T10:52:20.884Z,29.03
2019-01-06T10:55:09.589Z,28.07
2019-01-06T10:58:07.660Z,27.00
2019-01-06T11:01:05.965Z,27.23
2019-01-06T11:03:58.110Z,27.17
2019-01-06T11:07:03.574Z,27.03
2019-01-06T11:09:51.229Z,27.70
2019-01-06T11:12:58.649Z,26.27
2019-01-06T11:15:48.014Z,26.83
2019-01-06T11:18:35.574Z,27.00
2019-01-06T11:21:27.954Z,25.87
2019-01-06T11:24:23.779Z,27.27
2019-01-06T11:27:13.359Z,27.37
2019-01-06T11:30:15.075Z,26.53
2019-01-06T11:33:04.344Z,26.83
2019-01-06T11:35:59.899Z,23.40
2019-01-06T11:38:47.751Z,26.30
2019-01-06T11:41:39.330Z,25.40
2019-01-06T11:44:37.874Z,24.77
2019-01-06T11:47:39.634Z,24.27
2019-01-06T11:50:27.409Z,24.80
2019-01-06T11:53:16.806Z,22.67
2019-01-06T11:56:12.469Z,22.70
2019-01-06T11:59:05.179Z,23.03
2019-01-06T12:01:58.000Z,21.70
2019-01-06T12:04:45.939Z,22.00
2019-01-06T12:07:33.670Z,23.30
2019-01-06T12:10:29.654Z,24.23
2019-01-06T12:13:31.254Z,23.90
2019-01-06T12:16:18.934Z,23.73
2019-01-06T12:19:33.700Z,23.47
2019-01-06T12:22:17.449Z,24.97
2019-01-06T12:25:15.720Z,25.97
2019-01-06T12:28:08.194Z,25.70
2019-01-06T12:30:56.216Z,26.03
2019-01-06T12:33:48.654Z,26.07
2019-01-06T12:36:26.904Z,26.40
2019-01-06T12:39:16.435Z,24.97
2019-01-06T12:42:04.420Z,26.33
2019-01-06T12:44:59.374Z,26.23
2019-01-06T12:47:42.389Z,23.27
2019-01-06T12:50:39.400Z,24.00
2019-01-06T12:53:40.118Z,24.27
2019-01-06T12:56:26.739Z,24.20
2019-01-06T12:59:24.379Z,22.90
2019-01-06T13:02:22.635Z,23.53
2019-01-06T13:05:21.419Z,23.97
2019-01-06T13:08:08.461Z,24.00
2019-01-06T13:11:01.062Z,22.80
2019-01-06T13:13:49.274Z,22.23
2019-01-06T13:16:37.301Z,23.77
2019-01-06T13:19:25.099Z,23.87
2019-01-06T13:22:23.704Z,23.47
2019-01-06T13:25:11.394Z,22.33
2019-01-06T13:27:59.440Z,22.87
2019-01-06T13:31:01.862Z,22.53
2019-01-06T13:33:49.885Z,20.93
2019-01-06T13:36:42.009Z,22.27
2019-01-06T13:39:47.234Z,19.53
2019-01-06T13:42:48.994Z,21.37
2019-01-06T13:45:36.969Z,21.83
2019-01-06T13:48:32.419Z,19.93
2019-01-06T13:51:31.315Z,19.37
2019-01-06T13:54:30.393Z,19.60
2019-01-06T13:57:32.175Z,17.97
2019-01-06T14:00:27.164Z,17.67
2019-01-06T14:03:22.654Z,19.07
2019-01-06T14:06:11.045Z,19.80
2019-01-06T14:09:06.529Z,17.60
2019-01-06T14:11:59.319Z,17.83
2019-01-06T14:14:44.099Z,16.80
2019-01-06T14:17:39.645Z,16.50
2019-01-06T14:20:35.491Z,17.17
2019-01-06T14:23:43.099Z,16.70
2019-01-06T14:26:31.090Z,16.70
2019-01-06T14:29:32.399Z,15.67
2019-01-06T14:32:20.609Z,16.23
2019-01-06T14:35:10.259Z,15.70
2019-01-06T14:37:59.867Z,16.83
2019-01-06T14:41:04.599Z,16.47
2019-01-06T14:43:56.834Z,16.23
2019-01-06T14:46:44.809Z,16.73
2019-01-06T14:49:33.124Z,16.80
2019-01-06T14:52:35.275Z,15.93
2019-01-06T14:55:24.914Z,16.70
2019-01-06T14:58:28.819Z,15.47
2019-01-06T15:01:16.455Z,15.47
2019-01-06T15:04:22.069Z,16.73
2019-01-06T15:07:12.369Z,16.40
2019-01-06T15:10:07.669Z,16.17
2019-01-06T15:12:55.724Z,15.77
2019-01-06T15:15:52.784Z,17.10
2019-01-06T15:18:54.297Z,17.27
2019-01-06T15:22:01.588Z,16.27
2019-01-06T15:24:55.244Z,16.70
2019-01-06T15:27:53.529Z,16.33
2019-01-06T15:30:46.670Z,17.37
2019-01-06T15:33:48.384Z,17.60
2019-01-06T15:36:36.634Z,18.97
2019-01-06T15:39:29.949Z,17.67
2019-01-06T15:42:22.365Z,15.83
2019-01-06T15:45:12.110Z,16.90
2019-01-06T15:48:09.489Z,8.87
2019-01-06T15:50:57.520Z,9.47
2019-01-06T15:53:54.616Z,6.10
2019-01-06T15:56:44.354Z,4.13
2019-01-06T15:59:48.721Z,6.20
2019-01-06T16:02:39.096Z,4.40
2019-01-06T16:05:46.860Z,4.60
2019-01-06T16:08:54.738Z,2.07
2019-01-06T16:11:41.439Z,3.90
2019-01-06T16:14:46.014Z,19.67
2019-01-06T16:17:37.604Z,17.93
2019-01-06T16:20:23.094Z,17.57
2019-01-06T16:23:11.249Z,17.30
2019-01-06T16:26:12.901Z,20.40
2019-01-06T16:29:00.979Z,16.73
2019-01-06T16:31:48.759Z,15.57
2019-01-06T16:34:30.980Z,15.90
2019-01-06T16:37:18.722Z,14.33
2019-01-06T16:40:20.174Z,15.67
2019-01-06T16:43:01.225Z,14.17
2019-01-06T16:45:50.739Z,16.10
2019-01-06T16:48:39.909Z,15.23
2019-01-06T16:51:40.524Z,14.70
2019-01-06T16:54:44.039Z,13.57
2019-01-06T16:57:34.956Z,13.20
2019-01-06T17:00:23.399Z,13.83
2019-01-06T17:03:16.044Z,13.87
2019-01-06T17:06:03.684Z,12.60
2019-01-06T17:08:53.595Z,12.67
2019-01-06T17:11:49.825Z,12.30
2019-01-06T17:14:47.859Z,12.87
2019-01-06T17:17:35.784Z,13.40
2019-01-06T17:20:37.479Z,13.70
2019-01-06T17:23:25.784Z,12.03
2019-01-06T17:26:28.665Z,12.47
2019-01-06T17:29:18.420Z,12.33
2019-01-06T17:32:06.484Z,12.57
2019-01-06T17:34:56.080Z,11.57
2019-01-06T17:37:53.479Z,11.00
2019-01-06T17:41:01.106Z,11.00
2019-01-06T17:43:59.840Z,12.40
2019-01-06T17:47:07.261Z,14.30
2019-01-06T17:50:08.714Z,13.97
2019-01-06T17:52:56.644Z,12.83
2019-01-06T17:55:58.780Z,11.87
2019-01-06T17:58:51.599Z,12.33
2019-01-06T18:01:44.280Z,15.80
2019-01-06T18:04:38.654Z,13.87
2019-01-06T18:07:48.204Z,13.13
2019-01-06T18:10:43.799Z,13.83
2019-01-06T18:13:31.934Z,11.93
2019-01-06T18:16:20.195Z,12.70
2019-01-06T18:19:16.259Z,13.33
2019-01-06T18:22:14.945Z,13.70
2019-01-06T18:25:02.939Z,14.37
2019-01-06T18:27:58.834Z,13.63
2019-01-06T18:30:50.044Z,15.83
2019-01-06T18:33:31.179Z,11.70
2019-01-06T18:36:19.549Z,11.63
2019-01-06T18:39:12.335Z,11.03
2019-01-06T18:42:01.580Z,11.63
2019-01-06T18:44:57.659Z,10.53
2019-01-06T18:47:37.064Z,10.50
2019-01-06T18:50:26.817Z,12.20
2019-01-06T18:53:19.505Z,11.17
2019-01-06T18:56:21.024Z,12.20
2019-01-06T18:59:13.440Z,10.57
2019-01-06T19:02:03.252Z,26.67
2019-01-06T19:05:01.295Z,11.97
2019-01-06T19:07:49.599Z,11.80
2019-01-06T19:10:45.416Z,14.97
2019-01-06T19:13:53.204Z,11.60
2019-01-06T19:16:46.276Z,12.40
2019-01-06T19:19:43.522Z,14.63
2019-01-06T19:22:38.255Z,13.90
2019-01-06T19:25:43.324Z,13.53
2019-01-06T19:28:43.805Z,14.50
2019-01-06T19:31:37.445Z,14.40
2019-01-06T19:34:30.043Z,13.63
2019-01-06T19:37:19.371Z,13.30
2019-01-06T19:40:15.130Z,18.37
2019-01-06T19:43:07.475Z,17.90
2019-01-06T19:46:10.659Z,13.80
2019-01-06T19:49:10.119Z,13.60
2019-01-06T19:52:02.479Z,12.87
2019-01-06T19:54:45.819Z,11.80
2019-01-06T19:57:35.594Z,12.70
2019-01-06T20:00:25.455Z,13.17
2019-01-06T20:03:15.365Z,20.83
2019-01-06T20:06:03.066Z,14.67
2019-01-06T20:08:59.093Z,13.73
2019-01-06T20:11:46.949Z,14.17
2019-01-06T20:14:49.099Z,14.53
2019-01-06T20:17:39.494Z,13.10
2019-01-06T20:20:47.230Z,13.53
2019-01-06T20:23:41.814Z,14.37
2019-01-06T20:26:39.070Z,14.57
2019-01-06T20:29:28.052Z,13.73
2019-01-06T20:32:32.400Z,23.60
2019-01-06T20:35:35.025Z,29.03
2019-01-06T20:38:26.610Z,19.07
2019-01-06T20:41:18.350Z,15.40
2019-01-06T20:44:06.595Z,15.07
2019-01-06T20:46:55.660Z,15.80
2019-01-06T20:49:46.899Z,15.67
2019-01-06T20:52:41.953Z,15.27
2019-01-06T20:55:42.319Z,14.97
2019-01-06T20:58:31.694Z,14.23
2019-01-06T21:01:21.060Z,15.67
2019-01-06T21:04:19.964Z,17.27
2019-01-06T21:07:12.915Z,13.67
2019-01-06T21:10:06.135Z,14.73
2019-01-06T21:12:54.294Z,14.10
2019-01-06T21:15:53.594Z,15.33
2019-01-06T21:18:42.900Z,13.63
2019-01-06T21:21:32.640Z,12.97
2019-01-06T21:24:21.800Z,12.60
2019-01-06T21:27:14.018Z,12.37
2019-01-06T21:30:03.047Z,13.63
2019-01-06T21:32:51.584Z,13.40
2019-01-06T21:35:52.686Z,13.43
2019-01-06T21:38:40.935Z,15.00
2019-01-06T21:41:45.834Z,14.67
2019-01-06T21:44:47.699Z,13.60
2019-01-06T21:47:36.059Z,14.43
2019-01-06T21:50:20.455Z,14.50
2019-01-06T21:53:16.339Z,14.47
2019-01-06T21:56:12.474Z,14.20
2019-01-06T21:59:05.116Z,15.13
2019-01-06T22:01:53.700Z,16.30
2019-01-06T22:04:41.779Z,15.53
2019-01-06T22:07:34.300Z,14.67
2019-01-06T22:10:24.290Z,16.93
2019-01-06T22:13:25.235Z,14.50
2019-01-06T22:16:15.305Z,15.83
2019-01-06T22:19:03.779Z,15.97
2019-01-06T22:21:47.550Z,14.60
2019-01-06T22:24:34.139Z,15.17
2019-01-06T22:27:21.994Z,16.97
2019-01-06T22:30:25.919Z,15.57
2019-01-06T22:33:21.380Z,13.33
2019-01-06T22:36:09.215Z,13.93
2019-01-06T22:39:03.109Z,14.27
2019-01-06T22:41:53.744Z,16.23
2019-01-06T22:44:55.065Z,15.70
2019-01-06T22:47:47.010Z,16.97
2019-01-06T22:50:42.490Z,15.30
2019-01-06T22:53:30.695Z,15.70
2019-01-06T22:56:20.519Z,15.20
2019-01-06T22:59:25.299Z,16.80
2019-01-06T23:02:29.861Z,15.03
2019-01-06T23:05:19.344Z,15.20
2019-01-06T23:08:07.579Z,16.53
2019-01-06T23:10:55.604Z,16.40
2019-01-06T23:13:48.059Z,14.90
2019-01-06T23:16:37.595Z,14.93
2019-01-06T23:19:26.814Z,13.47
2019-01-06T23:22:22.494Z,14.23
2019-01-06T23:25:19.315Z,12.43
2019-01-06T23:28:07.875Z,13.93
2019-01-06T23:30:56.224Z,13.43
2019-01-06T23:33:40.774Z,14.53
2019-01-06T23:36:30.159Z,13.87
2019-01-06T23:39:19.519Z,14.47
2019-01-06T23:42:09.614Z,13.17
2019-01-06T23:44:58.014Z,13.37
2019-01-06T23:47:47.504Z,13.47
2019-01-06T23:50:30.410Z,12.87
2019-01-06T23:53:19.736Z,14.30
2019-01-06T23:56:25.975Z,13.70
2019-01-06T23:59:18.279Z,12.87
